createdAt,value
2018-01-17T00:01:43.501Z,2.10
2018-01-17T00:04:13.843Z,2.17
2018-01-17T00:06:43.833Z,2.20
2018-01-17T00:09:13.459Z,2.50
2018-01-17T00:11:43.546Z,2.37
2018-01-17T00:14:13.081Z,2.20
2018-01-17T00:16:52.577Z,2.47
2018-01-17T00:19:22.778Z,2.30
2018-01-17T00:21:52.797Z,2.20
2018-01-17T00:24:22.584Z,2.23
2018-01-17T00:26:52.090Z,1.90
2018-01-17T00:29:21.619Z,2.20
2018-01-17T00:31:51.364Z,2.10
2018-01-17T00:34:22.066Z,1.97
2018-01-17T00:36:51.617Z,1.90
2018-01-17T00:39:21.161Z,1.97
2018-01-17T00:41:50.666Z,2.23
2018-01-17T00:44:20.540Z,1.90
2018-01-17T00:46:54.165Z,2.10
2018-01-17T00:49:24.082Z,2.10
2018-01-17T00:51:53.646Z,2.30
2018-01-17T00:54:23.165Z,2.17
2018-01-17T00:56:56.453Z,2.00
2018-01-17T00:59:26.198Z,1.90
2018-01-17T01:01:56.133Z,2.30
2018-01-17T01:04:39.433Z,2.33
2018-01-17T01:07:08.969Z,2.20
2018-01-17T01:09:38.533Z,2.20
2018-01-17T01:12:08.206Z,1.90
2018-01-17T01:14:41.439Z,2.20
2018-01-17T01:17:11.042Z,2.20
2018-01-17T01:19:41.781Z,2.50
2018-01-17T01:22:11.535Z,2.60
2018-01-17T01:24:49.970Z,2.67
2018-01-17T01:27:25.773Z,3.10
2018-01-17T01:29:55.380Z,4.20
2018-01-17T01:32:25.040Z,2.50
2018-01-17T01:34:55.519Z,3.47
2018-01-17T01:37:31.177Z,3.23
2018-01-17T01:40:05.727Z,2.80
2018-01-17T01:42:35.243Z,4.67
2018-01-17T01:45:05.030Z,2.20
2018-01-17T01:47:47.095Z,2.63
2018-01-17T01:50:16.623Z,2.10
2018-01-17T01:52:50.506Z,2.53
2018-01-17T01:55:27.097Z,2.10
2018-01-17T01:57:57.333Z,2.10
2018-01-17T02:00:28.702Z,2.40
2018-01-17T02:02:58.322Z,1.93
2018-01-17T02:05:27.861Z,1.60
2018-01-17T02:07:57.398Z,1.93
2018-01-17T02:10:29.903Z,1.97
2018-01-17T02:13:06.001Z,2.10
2018-01-17T02:15:35.637Z,1.50
2018-01-17T02:18:05.269Z,1.70
2018-01-17T02:20:34.811Z,2.00
2018-01-17T02:23:09.540Z,2.00
2018-01-17T02:25:39.330Z,1.87
2018-01-17T02:28:09.545Z,2.30
2018-01-17T02:30:39.133Z,2.20
2018-01-17T02:33:16.479Z,1.87
2018-01-17T02:35:46.269Z,2.00
2018-01-17T02:38:16.194Z,1.80
2018-01-17T02:40:45.727Z,2.03
2018-01-17T02:43:15.448Z,1.97
2018-01-17T02:45:57.726Z,2.50
2018-01-17T02:48:27.377Z,2.17
2018-01-17T02:50:56.906Z,1.60
2018-01-17T02:53:26.481Z,2.40
2018-01-17T02:55:57.025Z,1.73
2018-01-17T02:58:26.597Z,1.93
2018-01-17T03:00:56.152Z,1.50
2018-01-17T03:03:25.809Z,1.60
2018-01-17T03:06:06.406Z,1.80
2018-01-17T03:08:35.918Z,1.73
2018-01-17T03:11:05.425Z,1.80
2018-01-17T03:13:35.012Z,2.00
2018-01-17T03:16:04.617Z,1.50
2018-01-17T03:18:34.141Z,1.80
2018-01-17T03:21:03.657Z,1.63
2018-01-17T03:23:45.314Z,1.67
2018-01-17T03:26:15.091Z,1.53
2018-01-17T03:28:50.761Z,1.70
2018-01-17T03:31:20.295Z,1.63
2018-01-17T03:33:49.864Z,1.70
2018-01-17T03:36:19.442Z,1.50
2018-01-17T03:38:49.014Z,1.67
2018-01-17T03:41:18.818Z,1.70
2018-01-17T03:43:48.375Z,1.70
2018-01-17T03:46:17.922Z,1.67
2018-01-17T03:48:48.406Z,1.80
2018-01-17T03:51:17.931Z,1.90
2018-01-17T03:53:47.970Z,1.57
2018-01-17T03:56:17.522Z,1.70
2018-01-17T03:58:47.077Z,1.90
2018-01-17T04:01:22.662Z,1.77
2018-01-17T04:03:52.291Z,1.90
2018-01-17T04:06:21.956Z,1.60
2018-01-17T04:08:51.567Z,2.20
2018-01-17T04:11:21.201Z,1.80
2018-01-17T04:13:50.776Z,1.87
2018-01-17T04:16:20.311Z,1.87
2018-01-17T04:18:51.377Z,2.00
2018-01-17T04:21:28.131Z,1.80
2018-01-17T04:23:57.672Z,1.80
2018-01-17T04:26:27.216Z,1.70
2018-01-17T04:28:56.727Z,2.20
2018-01-17T04:31:26.287Z,1.80
2018-01-17T04:33:55.841Z,1.93
2018-01-17T04:36:25.623Z,1.50
2018-01-17T04:38:55.183Z,2.10
2018-01-17T04:41:32.141Z,1.63
2018-01-17T04:44:01.661Z,1.50
2018-01-17T04:46:31.166Z,1.87
2018-01-17T04:49:07.067Z,1.90
2018-01-17T04:51:36.627Z,1.50
2018-01-17T04:54:06.177Z,1.83
2018-01-17T04:56:35.853Z,2.40
2018-01-17T04:59:05.404Z,1.60
2018-01-17T05:01:35.342Z,2.07
2018-01-17T05:04:04.943Z,1.53
2018-01-17T05:06:35.457Z,1.70
2018-01-17T05:09:05.016Z,1.80
2018-01-17T05:11:34.577Z,2.10
2018-01-17T05:14:04.109Z,2.07
2018-01-17T05:16:40.116Z,2.30
2018-01-17T05:19:28.396Z,2.03
2018-01-17T05:21:57.961Z,1.90
2018-01-17T05:24:27.512Z,2.40
2018-01-17T05:26:57.098Z,2.27
2018-01-17T05:29:43.986Z,2.07
2018-01-17T05:32:15.171Z,2.87
2018-01-17T05:34:44.957Z,2.53
2018-01-17T05:37:17.975Z,2.33
2018-01-17T05:39:47.516Z,2.50
2018-01-17T05:42:38.140Z,2.80
2018-01-17T05:45:14.388Z,2.27
2018-01-17T05:47:44.910Z,3.40
2018-01-17T05:50:14.470Z,3.60
2018-01-17T05:52:46.198Z,3.07
2018-01-17T05:55:23.791Z,2.77
2018-01-17T05:57:54.241Z,3.50
2018-01-17T06:00:24.728Z,3.10
2018-01-17T06:03:02.123Z,4.10
2018-01-17T06:05:31.660Z,2.73
2018-01-17T06:08:01.558Z,3.80
2018-01-17T06:10:31.107Z,4.50
2018-01-17T06:13:01.439Z,3.00
2018-01-17T06:15:36.929Z,2.13
2018-01-17T06:18:06.482Z,2.40
2018-01-17T06:20:37.024Z,1.90
2018-01-17T06:23:07.194Z,3.83
2018-01-17T06:25:36.719Z,2.03
2018-01-17T06:28:06.255Z,2.20
2018-01-17T06:30:35.804Z,2.20
2018-01-17T06:33:05.331Z,2.40
2018-01-17T06:35:35.034Z,1.43
2018-01-17T06:38:05.008Z,2.30
2018-01-17T06:40:34.522Z,2.33
2018-01-17T06:43:04.059Z,1.63
2018-01-17T06:45:33.575Z,1.50
2018-01-17T06:48:03.132Z,2.00
2018-01-17T06:50:32.692Z,1.40
2018-01-17T06:53:02.263Z,1.60
2018-01-17T06:55:31.790Z,1.60
2018-01-17T06:58:01.330Z,1.67
2018-01-17T07:00:30.898Z,1.30
2018-01-17T07:03:00.500Z,1.50
2018-01-17T07:05:30.465Z,1.47
2018-01-17T07:08:00.181Z,1.47
2018-01-17T07:10:29.733Z,1.20
2018-01-17T07:13:05.917Z,1.40
2018-01-17T07:15:36.478Z,1.10
2018-01-17T07:18:06.550Z,2.00
2018-01-17T07:20:36.052Z,1.57
2018-01-17T07:23:05.585Z,1.40
2018-01-17T07:25:35.326Z,1.40
2018-01-17T07:28:05.850Z,1.40
2018-01-17T07:30:35.713Z,1.37
2018-01-17T07:33:05.297Z,0.90
2018-01-17T07:35:48.736Z,1.30
2018-01-17T07:38:18.229Z,1.10
2018-01-17T07:40:48.106Z,1.67
2018-01-17T07:43:17.675Z,1.10
2018-01-17T07:46:06.365Z,1.60
2018-01-17T07:48:36.922Z,1.27
2018-01-17T07:51:06.889Z,1.10
2018-01-17T07:53:44.315Z,1.17
2018-01-17T07:56:13.884Z,1.20
2018-01-17T07:58:43.488Z,0.97
2018-01-17T08:01:13.090Z,1.17
2018-01-17T08:03:43.077Z,1.60
2018-01-17T08:06:12.701Z,1.70
2018-01-17T08:08:42.272Z,1.60
2018-01-17T08:11:11.806Z,1.43
2018-01-17T08:13:42.814Z,0.90
2018-01-17T08:16:12.331Z,1.70
2018-01-17T08:18:41.854Z,1.47
2018-01-17T08:21:11.444Z,2.27
2018-01-17T08:23:41.175Z,2.00
2018-01-17T08:26:17.288Z,1.30
2018-01-17T08:28:47.180Z,1.53
2018-01-17T08:31:16.952Z,2.17
2018-01-17T08:33:46.965Z,2.03
2018-01-17T08:36:16.505Z,2.23
2018-01-17T08:38:46.218Z,3.00
2018-01-17T08:41:22.302Z,1.97
2018-01-17T08:43:52.143Z,3.33
2018-01-17T08:46:21.765Z,2.37
2018-01-17T08:48:56.461Z,2.00
2018-01-17T08:51:34.356Z,1.90
2018-01-17T08:54:04.080Z,2.10
2018-01-17T08:56:33.584Z,4.40
2018-01-17T08:59:03.615Z,2.90
2018-01-17T09:01:33.174Z,3.07
2018-01-17T09:04:02.784Z,4.77
2018-01-17T09:06:32.346Z,1.87
2018-01-17T09:09:01.861Z,2.20
2018-01-17T09:11:36.974Z,2.17
2018-01-17T09:14:06.730Z,2.00
2018-01-17T09:16:36.302Z,1.13
2018-01-17T09:19:05.892Z,1.67
2018-01-17T09:21:35.382Z,1.70
2018-01-17T09:24:04.885Z,1.50
2018-01-17T09:26:35.690Z,1.90
2018-01-17T09:29:11.425Z,1.53
2018-01-17T09:31:41.632Z,2.47
2018-01-17T09:34:13.229Z,2.80
2018-01-17T09:36:42.804Z,2.33
2018-01-17T09:39:12.411Z,2.23
2018-01-17T09:41:42.074Z,2.17
2018-01-17T09:44:11.810Z,1.10
2018-01-17T09:46:41.308Z,1.80
2018-01-17T09:49:29.786Z,1.37
2018-01-17T09:51:59.328Z,1.53
2018-01-17T09:54:36.868Z,1.63
2018-01-17T09:57:06.735Z,1.50
2018-01-17T09:59:36.283Z,1.17
2018-01-17T10:02:05.830Z,1.10
2018-01-17T10:04:35.671Z,1.20
2018-01-17T10:07:05.707Z,2.23
2018-01-17T10:09:35.259Z,1.07
2018-01-17T10:12:12.509Z,1.53
2018-01-17T10:14:42.518Z,1.53
2018-01-17T10:17:12.081Z,1.50
2018-01-17T10:19:50.482Z,1.77
2018-01-17T10:22:19.989Z,2.20
2018-01-17T10:24:49.810Z,1.50
2018-01-17T10:27:19.774Z,2.13
2018-01-17T10:29:49.333Z,2.00
2018-01-17T10:32:18.920Z,2.20
2018-01-17T10:34:48.855Z,1.63
2018-01-17T10:37:18.449Z,1.33
2018-01-17T10:39:47.998Z,1.80
2018-01-17T10:42:17.482Z,1.70
2018-01-17T10:44:53.787Z,1.57
2018-01-17T10:47:23.383Z,1.57
2018-01-17T10:49:56.659Z,1.40
2018-01-17T10:52:26.738Z,1.20
2018-01-17T10:55:09.837Z,1.30
2018-01-17T10:57:39.397Z,1.73
2018-01-17T11:00:08.893Z,1.00
2018-01-17T11:02:38.417Z,0.93
2018-01-17T11:05:07.970Z,1.70
2018-01-17T11:07:37.497Z,1.90
2018-01-17T11:10:07.227Z,2.10
2018-01-17T11:12:56.691Z,1.10
2018-01-17T11:15:26.245Z,1.00
2018-01-17T11:17:56.470Z,1.40
2018-01-17T11:20:26.073Z,1.30
2018-01-17T11:22:55.798Z,1.53
2018-01-17T11:25:25.581Z,1.40
2018-01-17T11:27:55.152Z,1.40
2018-01-17T11:30:24.877Z,1.27
2018-01-17T11:32:54.748Z,1.43
2018-01-17T11:35:24.737Z,1.10
2018-01-17T11:37:54.732Z,1.37
2018-01-17T11:40:24.237Z,1.23
2018-01-17T11:42:53.802Z,1.33
2018-01-17T11:45:31.495Z,1.33
2018-01-17T11:48:01.261Z,0.93
2018-01-17T11:50:30.972Z,1.17
2018-01-17T11:53:00.564Z,2.33
2018-01-17T11:55:30.702Z,1.43
2018-01-17T11:58:13.402Z,1.20
2018-01-17T12:00:42.998Z,1.33
2018-01-17T12:03:12.574Z,1.33
2018-01-17T12:05:42.090Z,1.83
2018-01-17T12:08:11.690Z,1.37
2018-01-17T12:10:41.237Z,1.33
2018-01-17T12:13:10.738Z,1.17
2018-01-17T12:15:40.275Z,1.10
2018-01-17T12:18:10.214Z,1.40
2018-01-17T12:20:47.333Z,1.07
2018-01-17T12:23:17.421Z,1.10
2018-01-17T12:25:52.999Z,2.00
2018-01-17T12:28:22.536Z,1.83
2018-01-17T12:30:52.267Z,1.23
2018-01-17T12:33:22.443Z,3.40
2018-01-17T12:35:53.450Z,1.33
2018-01-17T12:38:23.025Z,1.30
2018-01-17T12:40:52.577Z,1.10
2018-01-17T12:43:22.666Z,1.40
2018-01-17T12:45:52.169Z,1.03
2018-01-17T12:48:21.752Z,1.27
2018-01-17T12:50:51.295Z,1.20
2018-01-17T12:53:27.461Z,1.07
2018-01-17T12:55:57.232Z,1.23
2018-01-17T12:58:26.751Z,1.10
2018-01-17T13:00:56.318Z,1.00
2018-01-17T13:03:25.818Z,1.10
2018-01-17T13:05:55.361Z,2.10
2018-01-17T13:08:39.395Z,3.30
2018-01-17T13:11:09.404Z,3.07
2018-01-17T13:13:39.308Z,3.43
2018-01-17T13:16:09.245Z,3.47
2018-01-17T13:18:39.265Z,3.10
2018-01-17T13:21:09.082Z,3.37
2018-01-17T13:23:39.496Z,4.00
2018-01-17T13:26:08.965Z,3.20
2018-01-17T13:28:39.323Z,4.13
2018-01-17T13:31:09.253Z,3.40
2018-01-17T13:33:39.095Z,3.30
2018-01-17T13:36:15.920Z,3.40
2018-01-17T13:38:45.745Z,3.67
2018-01-17T13:41:15.262Z,3.90
2018-01-17T13:43:51.775Z,3.60
2018-01-17T13:46:21.654Z,3.00
2018-01-17T13:48:51.180Z,3.07
2018-01-17T13:51:21.120Z,3.80
2018-01-17T13:53:50.672Z,3.23
2018-01-17T13:56:21.065Z,3.53
2018-01-17T13:58:50.674Z,3.50
2018-01-17T14:01:20.207Z,3.80
2018-01-17T14:03:49.803Z,3.47
2018-01-17T14:06:19.470Z,3.43
2018-01-17T14:09:01.370Z,3.70
2018-01-17T14:11:31.379Z,3.37
2018-01-17T14:14:07.957Z,3.90
2018-01-17T14:16:37.520Z,4.30
2018-01-17T14:19:07.468Z,4.40
2018-01-17T14:21:37.015Z,4.10
2018-01-17T14:24:08.475Z,4.53
2018-01-17T14:26:38.587Z,4.60
2018-01-17T14:29:08.126Z,5.00
2018-01-17T14:31:37.778Z,4.77
2018-01-17T14:34:07.336Z,4.50
2018-01-17T14:36:36.848Z,4.60
2018-01-17T14:39:06.326Z,4.50
2018-01-17T14:41:35.836Z,3.90
2018-01-17T14:44:05.413Z,5.27
2018-01-17T14:46:34.975Z,4.30
2018-01-17T14:49:05.006Z,4.87
2018-01-17T14:51:34.522Z,5.33
2018-01-17T14:54:08.384Z,4.30
2018-01-17T14:56:37.949Z,4.23
2018-01-17T14:59:07.489Z,5.27
2018-01-17T15:01:37.077Z,3.67
2018-01-17T15:04:06.666Z,4.87
2018-01-17T15:06:36.208Z,4.50
2018-01-17T15:09:05.842Z,4.80
2018-01-17T15:11:35.376Z,6.30
2018-01-17T15:14:04.944Z,4.30
2018-01-17T15:16:35.197Z,3.60
2018-01-17T15:19:04.832Z,4.00
2018-01-17T15:21:34.472Z,4.33
2018-01-17T15:24:04.054Z,4.80
2018-01-17T15:26:34.546Z,4.60
2018-01-17T15:29:04.343Z,4.13
2018-01-17T15:31:34.330Z,4.87
2018-01-17T15:34:03.897Z,4.50
2018-01-17T15:36:33.444Z,4.20
2018-01-17T15:39:03.087Z,5.17
2018-01-17T15:41:33.502Z,3.90
2018-01-17T15:44:03.506Z,3.70
2018-01-17T15:46:40.294Z,3.43
2018-01-17T15:49:09.845Z,4.50
2018-01-17T15:51:39.398Z,4.60
2018-01-17T15:54:08.917Z,4.30
2018-01-17T15:56:53.617Z,4.43
2018-01-17T15:59:23.888Z,3.93
2018-01-17T16:01:53.590Z,4.23
2018-01-17T16:04:23.104Z,3.43
2018-01-17T16:06:58.652Z,3.50
2018-01-17T16:09:28.144Z,3.00
2018-01-17T16:11:57.652Z,4.10
2018-01-17T16:14:34.417Z,5.10
2018-01-17T16:17:11.520Z,4.50
2018-01-17T16:19:41.485Z,5.93
2018-01-17T16:22:11.449Z,4.73
2018-01-17T16:24:54.564Z,5.00
2018-01-17T16:27:30.998Z,5.37
2018-01-17T16:30:00.530Z,5.30
2018-01-17T16:32:30.462Z,5.33
2018-01-17T16:35:00.011Z,5.40
2018-01-17T16:37:37.245Z,5.87
2018-01-17T16:40:13.065Z,5.33
2018-01-17T16:42:42.799Z,5.27
2018-01-17T16:45:12.350Z,5.83
2018-01-17T16:47:42.466Z,5.40
2018-01-17T16:50:12.128Z,5.53
2018-01-17T16:52:41.686Z,6.20
2018-01-17T16:55:11.189Z,5.20
2018-01-17T16:57:40.669Z,5.23
2018-01-17T17:00:10.380Z,5.17
2018-01-17T17:02:39.932Z,6.20
2018-01-17T17:05:11.537Z,5.23
2018-01-17T17:07:41.475Z,6.80
2018-01-17T17:10:11.515Z,5.73
2018-01-17T17:12:41.068Z,5.87
2018-01-17T17:15:11.295Z,4.30
2018-01-17T17:17:41.386Z,4.30
2018-01-17T17:20:10.943Z,5.80
2018-01-17T17:22:41.048Z,4.03
2018-01-17T17:25:10.534Z,4.40
2018-01-17T17:27:40.094Z,4.57
2018-01-17T17:30:09.666Z,4.57
2018-01-17T17:32:39.348Z,4.40
2018-01-17T17:35:08.916Z,4.40
2018-01-17T17:37:38.767Z,3.90
2018-01-17T17:40:08.482Z,3.87
2018-01-17T17:45:13.929Z,4.23
2018-01-17T17:47:43.424Z,3.70
2018-01-17T17:50:12.949Z,4.60
2018-01-17T17:52:42.493Z,4.83
2018-01-17T17:55:12.023Z,4.47
2018-01-17T17:57:41.570Z,5.30
2018-01-17T18:00:11.174Z,5.80
2018-01-17T18:02:41.129Z,5.00
2018-01-17T18:05:10.677Z,6.77
2018-01-17T18:07:40.197Z,4.23
2018-01-17T18:10:09.713Z,5.50
2018-01-17T18:12:39.410Z,4.37
2018-01-17T18:15:08.962Z,5.03
2018-01-17T18:17:38.524Z,5.50
2018-01-17T18:20:08.044Z,5.50
2018-01-17T18:22:47.011Z,5.43
2018-01-17T18:25:16.838Z,5.90
2018-01-17T18:27:46.361Z,5.37
2018-01-17T18:30:16.357Z,6.47
2018-01-17T18:32:45.912Z,4.30
2018-01-17T18:35:15.476Z,5.07
2018-01-17T18:37:45.098Z,5.17
2018-01-17T18:40:14.681Z,5.23
2018-01-17T18:42:44.204Z,5.43
2018-01-17T18:45:13.807Z,5.73
2018-01-17T18:47:43.379Z,4.43
2018-01-17T18:50:12.915Z,5.27
2018-01-17T18:52:42.499Z,5.10
2018-01-17T18:55:12.126Z,6.00
2018-01-17T18:57:53.725Z,5.87
2018-01-17T19:00:23.277Z,5.17
2018-01-17T19:02:53.234Z,4.60
2018-01-17T19:05:22.762Z,5.90
2018-01-17T19:07:55.323Z,5.63
2018-01-17T19:10:43.555Z,5.20
2018-01-17T19:13:13.105Z,5.93
2018-01-17T19:15:42.757Z,5.60
2018-01-17T19:18:12.293Z,5.00
2018-01-17T19:20:41.790Z,5.33
2018-01-17T19:23:11.338Z,5.40
2018-01-17T19:25:41.288Z,5.57
2018-01-17T19:28:10.784Z,7.23
2018-01-17T19:30:40.259Z,7.27
2018-01-17T19:33:10.333Z,7.00
2018-01-17T19:35:40.626Z,5.60
2018-01-17T19:38:10.411Z,5.90
2018-01-17T19:40:39.954Z,6.13
2018-01-17T19:43:09.466Z,4.70
2018-01-17T19:45:38.980Z,6.90
2018-01-17T19:48:08.547Z,7.63
2018-01-17T19:50:45.743Z,4.80
2018-01-17T19:53:15.255Z,5.40
2018-01-17T19:55:45.128Z,6.30
2018-01-17T19:58:14.682Z,6.20
2018-01-17T20:00:44.214Z,5.80
2018-01-17T20:03:13.853Z,6.27
2018-01-17T20:05:43.419Z,4.97
2018-01-17T20:08:13.352Z,5.60
2018-01-17T20:10:42.885Z,4.23
2018-01-17T20:13:12.381Z,6.03
2018-01-17T20:15:49.406Z,4.60
2018-01-17T20:18:19.027Z,5.10
2018-01-17T20:20:48.561Z,7.50
2018-01-17T20:23:18.059Z,6.17
2018-01-17T20:25:47.595Z,5.30
2018-01-17T20:28:17.542Z,4.90
2018-01-17T20:30:54.469Z,5.37
2018-01-17T20:33:24.504Z,5.87
2018-01-17T20:35:54.122Z,4.40
2018-01-17T20:38:23.725Z,4.27
2018-01-17T20:40:53.299Z,4.87
2018-01-17T20:43:23.081Z,5.80
2018-01-17T20:45:53.026Z,4.50
2018-01-17T20:48:22.572Z,4.80
2018-01-17T20:50:52.091Z,6.43
2018-01-17T20:53:21.781Z,5.07
2018-01-17T20:56:04.207Z,5.10
2018-01-17T20:58:33.848Z,6.70
2018-01-17T21:01:04.069Z,5.60
2018-01-17T21:03:33.892Z,5.43
2018-01-17T21:06:04.206Z,5.53
2018-01-17T21:08:34.889Z,6.20
2018-01-17T21:11:04.430Z,4.70
2018-01-17T21:13:34.224Z,5.13
2018-01-17T21:16:03.745Z,5.83
2018-01-17T21:18:33.233Z,5.83
2018-01-17T21:21:02.845Z,5.60
2018-01-17T21:23:32.502Z,6.10
2018-01-17T21:26:02.839Z,5.17
2018-01-17T21:28:32.482Z,4.80
2018-01-17T21:31:02.217Z,4.80
2018-01-17T21:33:32.314Z,4.40
2018-01-17T21:36:02.261Z,5.60
2018-01-17T21:38:31.749Z,5.00
2018-01-17T21:41:01.536Z,4.67
2018-01-17T21:43:36.762Z,4.50
2018-01-17T21:46:06.572Z,4.67
2018-01-17T21:48:36.130Z,5.37
2018-01-17T21:51:05.713Z,4.00
2018-01-17T21:53:35.358Z,4.60
2018-01-17T21:56:04.918Z,3.67
2018-01-17T21:58:34.898Z,3.80
2018-01-17T22:01:04.478Z,4.33
2018-01-17T22:03:34.151Z,3.30
2018-01-17T22:06:03.739Z,3.43
2018-01-17T22:08:33.457Z,3.33
2018-01-17T22:11:03.082Z,3.07
2018-01-17T22:13:32.614Z,3.50
2018-01-17T22:16:02.161Z,3.23
2018-01-17T22:18:31.712Z,3.90
2018-01-17T22:21:01.241Z,3.93
2018-01-17T22:23:46.109Z,4.90
2018-01-17T22:26:16.358Z,3.63
2018-01-17T22:28:45.930Z,3.90
2018-01-17T22:31:15.856Z,3.60
2018-01-17T22:33:46.111Z,4.83
2018-01-17T22:36:15.646Z,3.30
2018-01-17T22:38:45.399Z,4.17
2018-01-17T22:41:15.118Z,4.30
2018-01-17T22:43:45.185Z,4.03
2018-01-17T22:46:18.126Z,3.67
2018-01-17T22:48:53.734Z,3.40
2018-01-17T22:51:23.270Z,4.20
2018-01-17T22:53:59.305Z,4.20
2018-01-17T22:56:28.814Z,4.83
2018-01-17T22:58:58.309Z,3.73
2018-01-17T23:01:27.867Z,5.10
2018-01-17T23:03:57.450Z,3.67
2018-01-17T23:06:27.518Z,4.20
2018-01-17T23:08:57.062Z,3.50
2018-01-17T23:11:26.637Z,4.80
2018-01-17T23:13:56.155Z,5.20
2018-01-17T23:16:35.358Z,3.27
2018-01-17T23:19:04.929Z,4.87
2018-01-17T23:21:34.518Z,3.23
2018-01-17T23:24:04.092Z,4.97
2018-01-17T23:26:33.650Z,3.80
2018-01-17T23:29:03.182Z,4.43
2018-01-17T23:31:45.278Z,4.13
2018-01-17T23:34:19.688Z,5.03
2018-01-17T23:36:49.256Z,5.10
2018-01-17T23:39:18.781Z,4.00
2018-01-17T23:41:48.326Z,3.90
2018-01-17T23:44:17.997Z,4.90
2018-01-17T23:46:47.631Z,3.27
2018-01-17T23:49:17.526Z,4.07
2018-01-17T23:51:47.086Z,4.47
2018-01-17T23:54:16.694Z,5.67
2018-01-17T23:56:46.346Z,6.40
2018-01-17T23:59:15.904Z,6.47
